createdAt,value
2023-05-14T00:00:04.103Z,7.53
2023-05-14T00:02:30.740Z,7.70
2023-05-14T00:04:57.307Z,7.88
2023-05-14T00:07:23.857Z,7.88
2023-05-14T00:09:50.305Z,7.60
2023-05-14T00:12:16.777Z,7.85
2023-05-14T00:14:43.238Z,8.10
2023-05-14T00:17:09.740Z,8.88
2023-05-14T00:19:36.539Z,8.35
2023-05-14T00:22:03.010Z,8.55
2023-05-14T00:24:29.452Z,8.50
2023-05-14T00:26:56.276Z,8.57
2023-05-14T00:29:22.731Z,9.02
2023-05-14T00:31:49.334Z,8.95
2023-05-14T00:34:15.959Z,8.90
2023-05-14T00:36:42.545Z,9.07
2023-05-14T00:39:09.134Z,8.63
2023-05-14T00:41:35.916Z,8.48
2023-05-14T00:44:02.436Z,8.75
2023-05-14T00:46:29.030Z,9.02
2023-05-14T00:48:55.929Z,9.23
2023-05-14T00:51:22.471Z,8.93
2023-05-14T00:53:49.566Z,8.27
2023-05-14T00:56:16.663Z,8.60
2023-05-14T00:58:43.141Z,9.73
2023-05-14T01:01:10.003Z,9.15
2023-05-14T01:03:36.851Z,8.90
2023-05-14T01:06:15.462Z,9.57
2023-05-14T01:08:44.894Z,8.82
2023-05-14T01:11:29.064Z,9.65
2023-05-14T01:14:22.750Z,8.75
2023-05-14T01:16:52.696Z,9.32
2023-05-14T01:19:38.644Z,9.27
2023-05-14T01:22:05.555Z,9.18
2023-05-14T01:24:32.076Z,8.82
2023-05-14T01:27:15.086Z,8.85
2023-05-14T01:29:48.689Z,8.35
2023-05-14T01:32:17.697Z,9.50
2023-05-14T01:34:47.242Z,9.55
2023-05-14T01:37:13.982Z,8.85
2023-05-14T01:39:42.091Z,9.30
2023-05-14T01:42:09.175Z,9.00
2023-05-14T01:44:36.355Z,9.82
2023-05-14T01:47:03.501Z,9.63
2023-05-14T01:49:30.038Z,9.07
2023-05-14T01:51:56.525Z,9.05
2023-05-14T01:54:23.265Z,8.95
2023-05-14T01:56:49.961Z,8.90
2023-05-14T01:59:16.414Z,8.85
2023-05-14T02:01:43.209Z,9.90
2023-05-14T02:04:09.832Z,8.90
2023-05-14T02:06:36.350Z,8.77
2023-05-14T02:09:05.367Z,8.68
2023-05-14T02:11:31.802Z,9.15
2023-05-14T02:13:58.237Z,9.23
2023-05-14T02:16:24.756Z,9.23
2023-05-14T02:18:51.342Z,8.43
2023-05-14T02:21:17.842Z,9.20
2023-05-14T02:23:44.415Z,9.38
2023-05-14T02:26:11.457Z,9.60
2023-05-14T02:28:38.139Z,8.65
2023-05-14T02:31:04.681Z,9.88
2023-05-14T02:33:31.362Z,9.45
2023-05-14T02:35:57.890Z,10.40
2023-05-14T02:38:24.365Z,9.85
2023-05-14T02:40:50.801Z,9.98
2023-05-14T02:43:17.317Z,9.60
2023-05-14T02:45:44.139Z,10.00
2023-05-14T02:48:10.714Z,10.32
2023-05-14T02:50:37.239Z,10.35
2023-05-14T02:53:03.797Z,10.15
2023-05-14T02:55:30.355Z,10.65
2023-05-14T02:57:56.933Z,11.20
2023-05-14T03:00:24.249Z,10.27
2023-05-14T03:02:51.313Z,10.60
2023-05-14T03:05:18.542Z,10.15
2023-05-14T03:07:45.028Z,10.30
2023-05-14T03:10:12.147Z,9.60
2023-05-14T03:12:38.712Z,10.30
2023-05-14T03:15:05.545Z,10.48
2023-05-14T03:17:31.914Z,11.50
2023-05-14T03:19:58.410Z,9.75
2023-05-14T03:22:25.114Z,11.18
2023-05-14T03:24:51.518Z,10.32
2023-05-14T03:27:17.928Z,10.65
2023-05-14T03:29:44.370Z,10.75
2023-05-14T03:32:10.824Z,10.85
2023-05-14T03:34:37.268Z,11.05
2023-05-14T03:37:04.077Z,11.07
2023-05-14T03:39:30.482Z,10.27
2023-05-14T03:41:58.835Z,11.63
2023-05-14T03:44:25.715Z,10.95
2023-05-14T03:46:52.089Z,12.18
2023-05-14T03:49:18.865Z,11.10
2023-05-14T03:51:45.374Z,11.50
2023-05-14T03:54:11.902Z,11.45
2023-05-14T03:56:38.352Z,11.90
2023-05-14T03:59:04.785Z,11.63
2023-05-14T04:01:31.163Z,11.38
2023-05-14T04:03:57.838Z,11.02
2023-05-14T04:06:24.503Z,11.70
2023-05-14T04:08:50.973Z,11.90
2023-05-14T04:11:17.448Z,12.10
2023-05-14T04:13:43.994Z,11.55
2023-05-14T04:16:10.567Z,12.32
2023-05-14T04:18:37.131Z,12.48
2023-05-14T04:21:03.650Z,12.50
2023-05-14T04:23:31.763Z,12.18
2023-05-14T04:25:58.788Z,12.32
2023-05-14T04:28:25.423Z,12.02
2023-05-14T04:30:52.498Z,12.32
2023-05-14T04:33:18.998Z,12.55
2023-05-14T04:35:46.756Z,12.85
2023-05-14T04:38:14.233Z,12.23
2023-05-14T04:40:41.519Z,12.45
2023-05-14T04:43:08.167Z,12.40
2023-05-14T04:45:34.734Z,12.50
2023-05-14T04:48:02.097Z,12.02
2023-05-14T04:50:28.742Z,12.63
2023-05-14T04:52:55.855Z,13.23
2023-05-14T04:55:22.982Z,11.38
2023-05-14T04:57:49.502Z,12.40
2023-05-14T05:00:17.396Z,12.65
2023-05-14T05:02:43.957Z,12.07
2023-05-14T05:05:10.665Z,12.20
2023-05-14T05:07:37.043Z,12.13
2023-05-14T05:10:03.662Z,12.38
2023-05-14T05:12:30.446Z,12.13
2023-05-14T05:14:57.846Z,12.82
2023-05-14T05:17:25.454Z,12.23
2023-05-14T05:19:52.720Z,12.27
2023-05-14T05:22:20.165Z,12.48
2023-05-14T05:24:48.038Z,11.27
2023-05-14T05:27:15.762Z,12.63
2023-05-14T05:29:42.310Z,10.95
2023-05-14T05:32:08.826Z,12.20
2023-05-14T05:34:36.201Z,12.48
2023-05-14T05:37:03.275Z,12.55
2023-05-14T05:39:34.639Z,12.35
2023-05-14T05:42:04.806Z,10.68
2023-05-14T05:44:31.477Z,11.45
2023-05-14T05:46:58.128Z,12.43
2023-05-14T05:49:24.745Z,12.43
2023-05-14T05:51:51.140Z,11.82
2023-05-14T05:54:17.781Z,11.98
2023-05-14T05:56:44.384Z,11.32
2023-05-14T05:59:10.845Z,10.82
2023-05-14T06:01:37.380Z,12.02
2023-05-14T06:04:06.264Z,11.27
2023-05-14T06:06:33.030Z,11.43
2023-05-14T06:08:59.479Z,11.02
2023-05-14T06:11:26.621Z,11.30
2023-05-14T06:13:53.195Z,12.38
2023-05-14T06:16:19.729Z,11.38
2023-05-14T06:18:46.637Z,11.52
2023-05-14T06:21:13.217Z,12.05
2023-05-14T06:23:40.217Z,11.75
2023-05-14T06:26:06.817Z,10.95
2023-05-14T06:28:33.229Z,11.48
2023-05-14T06:30:59.754Z,11.77
2023-05-14T06:33:30.891Z,11.70
2023-05-14T06:36:04.068Z,11.98
2023-05-14T06:38:30.611Z,11.57
2023-05-14T06:40:57.013Z,10.13
2023-05-14T06:43:23.601Z,11.50
2023-05-14T06:45:50.932Z,10.93
2023-05-14T06:48:21.321Z,11.63
2023-05-14T06:50:48.916Z,11.90
2023-05-14T06:53:15.868Z,10.23
2023-05-14T06:55:42.286Z,10.85
2023-05-14T06:58:09.059Z,11.50
2023-05-14T07:00:35.760Z,10.85
2023-05-14T07:03:02.256Z,10.27
2023-05-14T07:05:29.068Z,10.65
2023-05-14T07:07:55.613Z,10.05
2023-05-14T07:10:22.381Z,8.18
2023-05-14T07:12:49.651Z,10.70
2023-05-14T07:15:16.183Z,10.10
2023-05-14T07:17:43.016Z,10.45
2023-05-14T07:20:10.109Z,9.98
2023-05-14T07:22:36.674Z,9.35
2023-05-14T07:25:03.300Z,9.98
2023-05-14T07:27:30.106Z,9.52
2023-05-14T07:29:56.600Z,8.73
2023-05-14T07:32:25.142Z,10.05
2023-05-14T07:34:51.722Z,9.23
2023-05-14T07:37:18.495Z,7.47
2023-05-14T07:39:44.935Z,8.80
2023-05-14T07:42:13.737Z,9.85
2023-05-14T07:44:46.064Z,9.40
2023-05-14T07:47:12.603Z,9.63
2023-05-14T07:49:39.055Z,8.50
2023-05-14T07:52:05.676Z,9.40
2023-05-14T07:54:32.098Z,8.82
2023-05-14T07:56:58.569Z,8.70
2023-05-14T07:59:25.111Z,9.07
2023-05-14T08:01:51.821Z,8.25
2023-05-14T08:04:18.253Z,8.43
2023-05-14T08:06:44.755Z,8.57
2023-05-14T08:09:11.393Z,7.72
2023-05-14T08:11:39.167Z,7.03
2023-05-14T08:14:05.812Z,9.02
2023-05-14T08:16:32.331Z,8.25
2023-05-14T08:18:59.003Z,8.35
2023-05-14T08:21:25.527Z,8.02
2023-05-14T08:23:51.965Z,9.85
2023-05-14T08:26:18.337Z,7.47
2023-05-14T08:28:44.780Z,6.75
2023-05-14T08:31:11.404Z,7.38
2023-05-14T08:33:37.961Z,7.07
2023-05-14T08:36:05.045Z,6.45
2023-05-14T08:38:31.449Z,6.97
2023-05-14T08:41:00.866Z,6.18
2023-05-14T08:43:35.310Z,6.13
2023-05-14T08:46:05.995Z,5.35
2023-05-14T08:48:34.464Z,6.13
2023-05-14T08:51:02.213Z,6.25
2023-05-14T08:53:28.768Z,5.47
2023-05-14T08:55:55.456Z,6.03
2023-05-14T08:58:22.003Z,5.30
2023-05-14T09:00:48.514Z,5.35
2023-05-14T09:03:15.896Z,5.45
2023-05-14T09:05:42.731Z,5.87
2023-05-14T09:08:09.152Z,5.50
2023-05-14T09:10:35.612Z,6.00
2023-05-14T09:13:02.122Z,5.20
2023-05-14T09:15:29.676Z,5.20
2023-05-14T09:17:56.946Z,4.68
2023-05-14T09:20:25.226Z,4.40
2023-05-14T09:22:54.961Z,4.32
2023-05-14T09:25:27.235Z,4.20
2023-05-14T09:27:56.732Z,4.55
2023-05-14T09:30:26.573Z,4.65
2023-05-14T09:32:54.501Z,4.30
2023-05-14T09:35:23.934Z,4.22
2023-05-14T09:37:55.182Z,4.38
2023-05-14T09:40:24.415Z,4.10
2023-05-14T09:42:51.458Z,4.43
2023-05-14T09:45:18.013Z,4.40
2023-05-14T09:47:45.344Z,4.03
2023-05-14T09:50:12.275Z,4.75
2023-05-14T09:52:39.547Z,4.22
2023-05-14T09:55:06.552Z,4.43
2023-05-14T09:57:33.603Z,3.17
2023-05-14T10:00:00.181Z,3.60
2023-05-14T10:02:36.850Z,3.22
2023-05-14T10:05:06.241Z,2.80
2023-05-14T10:07:44.410Z,2.90
2023-05-14T10:10:15.775Z,3.10
2023-05-14T10:12:46.279Z,3.10
2023-05-14T10:15:18.092Z,3.30
2023-05-14T10:17:49.268Z,3.50
2023-05-14T10:20:17.330Z,3.17
2023-05-14T10:22:43.992Z,3.40
2023-05-14T10:25:11.521Z,4.00
2023-05-14T10:27:38.171Z,3.80
2023-05-14T10:30:11.113Z,4.22
2023-05-14T10:32:37.983Z,4.10
2023-05-14T10:35:17.399Z,4.72
2023-05-14T10:37:46.209Z,4.32
2023-05-14T10:40:14.258Z,4.53
2023-05-14T10:42:45.281Z,4.70
2023-05-14T10:45:14.040Z,4.65
2023-05-14T10:47:46.304Z,5.22
2023-05-14T10:50:15.768Z,4.10
2023-05-14T10:52:43.585Z,3.70
2023-05-14T10:57:41.932Z,4.38
2023-05-14T11:00:10.854Z,4.32
2023-05-14T11:02:41.066Z,4.10
2023-05-14T11:07:57.908Z,4.40
2023-05-14T11:10:29.998Z,4.03
2023-05-14T11:13:00.712Z,3.40
2023-05-14T11:15:28.440Z,4.10
2023-05-14T11:17:55.788Z,3.85
2023-05-14T11:20:22.721Z,3.72
2023-05-14T11:22:52.198Z,3.80
2023-05-14T11:25:23.186Z,3.47
2023-05-14T11:27:50.405Z,3.33
2023-05-14T11:30:18.913Z,3.63
2023-05-14T11:32:47.261Z,3.35
2023-05-14T11:35:15.167Z,4.03
2023-05-14T11:37:42.271Z,3.45
2023-05-14T11:40:18.865Z,3.88
2023-05-14T11:42:46.188Z,3.88
2023-05-14T11:45:14.207Z,3.38
2023-05-14T11:50:09.933Z,3.40
2023-05-14T11:52:41.938Z,4.65
2023-05-14T11:55:14.137Z,4.50
2023-05-14T11:57:43.434Z,4.10
2023-05-14T12:00:16.769Z,4.10
2023-05-14T12:02:43.442Z,4.28
2023-05-14T12:05:13.573Z,4.10
2023-05-14T12:07:40.802Z,3.90
2023-05-14T12:10:08.438Z,4.50
2023-05-14T12:12:37.397Z,4.30
2023-05-14T12:15:15.458Z,4.00
2023-05-14T12:17:42.022Z,3.33
2023-05-14T12:20:11.134Z,3.28
2023-05-14T12:22:38.597Z,3.63
2023-05-14T12:25:12.402Z,3.90
2023-05-14T12:27:38.916Z,3.45
2023-05-14T12:32:40.412Z,3.53
2023-05-14T12:35:07.210Z,3.13
2023-05-14T12:37:34.182Z,3.00
2023-05-14T12:40:00.820Z,2.93
2023-05-14T12:42:27.942Z,3.10
2023-05-14T12:44:54.307Z,3.13
2023-05-14T12:47:21.026Z,3.30
2023-05-14T12:49:47.588Z,3.25
2023-05-14T12:54:43.669Z,4.65
2023-05-14T12:57:10.284Z,4.47
2023-05-14T12:59:36.785Z,4.72
2023-05-14T13:02:03.300Z,4.78
2023-05-14T13:04:29.751Z,4.60
2023-05-14T13:06:56.217Z,5.28
2023-05-14T13:09:22.755Z,4.75
2023-05-14T13:11:49.169Z,5.55
2023-05-14T13:14:15.634Z,5.00
2023-05-14T13:16:42.511Z,4.88
2023-05-14T13:19:09.385Z,4.85
2023-05-14T13:21:36.161Z,5.15
2023-05-14T13:24:02.698Z,4.68
2023-05-14T13:26:29.211Z,4.50
2023-05-14T13:28:55.648Z,3.50
2023-05-14T13:31:22.183Z,4.03
2023-05-14T13:33:48.844Z,4.00
2023-05-14T13:36:16.316Z,3.60
2023-05-14T13:38:42.837Z,4.00
2023-05-14T13:41:09.266Z,3.65
2023-05-14T13:43:36.001Z,4.38
2023-05-14T13:46:04.259Z,4.18
2023-05-14T13:48:33.707Z,3.83
2023-05-14T13:51:00.430Z,4.35
2023-05-14T13:53:27.030Z,3.83
2023-05-14T13:55:58.260Z,4.22
2023-05-14T13:58:25.517Z,4.03
2023-05-14T14:00:52.868Z,4.38
2023-05-14T14:03:19.691Z,4.05
2023-05-14T14:05:46.278Z,4.05
2023-05-14T14:08:23.384Z,3.90
2023-05-14T14:10:51.044Z,3.60
2023-05-14T14:13:17.628Z,4.10
2023-05-14T14:15:44.344Z,3.83
2023-05-14T14:18:10.934Z,3.60
2023-05-14T14:20:37.433Z,3.90
2023-05-14T14:23:04.119Z,3.78
2023-05-14T14:25:30.660Z,3.90
2023-05-14T14:27:57.430Z,3.50
2023-05-14T14:30:23.875Z,3.40
2023-05-14T14:32:51.154Z,3.78
2023-05-14T14:35:19.449Z,3.78
2023-05-14T14:37:49.206Z,4.40
2023-05-14T14:40:17.208Z,3.88
2023-05-14T14:45:11.478Z,4.03
2023-05-14T14:47:38.359Z,4.13
2023-05-14T14:50:06.351Z,3.83
2023-05-14T14:52:33.032Z,4.28
2023-05-14T14:54:59.704Z,4.20
2023-05-14T14:57:27.276Z,4.55
2023-05-14T14:59:53.704Z,4.45
2023-05-14T15:02:20.694Z,4.15
2023-05-14T15:04:47.183Z,18.67
2023-05-14T15:07:15.881Z,10.00
2023-05-14T15:09:42.447Z,5.68
2023-05-14T15:12:10.283Z,4.43
2023-05-14T15:14:36.736Z,4.13
2023-05-14T15:17:03.309Z,4.68
2023-05-14T15:19:31.214Z,4.20
2023-05-14T15:21:58.635Z,4.05
2023-05-14T15:24:26.442Z,4.20
2023-05-14T15:26:53.777Z,4.25
2023-05-14T15:29:20.594Z,4.47
2023-05-14T15:31:47.447Z,4.25
2023-05-14T15:34:14.120Z,5.47
2023-05-14T15:36:40.725Z,4.38
2023-05-14T15:39:10.516Z,8.18
2023-05-14T15:41:37.225Z,5.45
2023-05-14T15:44:03.796Z,5.47
2023-05-14T15:46:30.953Z,5.00
2023-05-14T15:48:58.161Z,4.10
2023-05-14T15:51:24.698Z,4.38
2023-05-14T15:53:53.258Z,4.25
2023-05-14T15:56:20.792Z,3.63
2023-05-14T15:58:48.273Z,3.67
2023-05-14T16:01:14.788Z,3.83
2023-05-14T16:03:41.546Z,3.65
2023-05-14T16:06:08.094Z,3.75
2023-05-14T16:08:34.526Z,3.85
2023-05-14T16:11:01.012Z,3.85
2023-05-14T16:13:27.566Z,4.03
2023-05-14T16:15:54.377Z,4.45
2023-05-14T16:18:22.303Z,3.80
2023-05-14T16:20:49.053Z,4.28
2023-05-14T16:23:15.534Z,4.13
2023-05-14T16:25:42.577Z,3.65
2023-05-14T16:28:09.142Z,4.00
2023-05-14T16:30:35.611Z,3.75
2023-05-14T16:33:02.256Z,3.50
2023-05-14T16:35:28.950Z,3.95
2023-05-14T16:37:56.010Z,3.45
2023-05-14T16:40:23.828Z,3.53
2023-05-14T16:45:18.090Z,3.63
2023-05-14T16:47:44.695Z,3.20
2023-05-14T16:50:11.586Z,3.85
2023-05-14T16:52:38.081Z,3.83
2023-05-14T16:55:05.115Z,4.00
2023-05-14T16:57:31.815Z,3.72
2023-05-14T16:59:58.510Z,3.40
2023-05-14T17:02:25.641Z,3.50
2023-05-14T17:04:54.074Z,3.37
2023-05-14T17:07:20.680Z,3.63
2023-05-14T17:09:47.367Z,3.22
2023-05-14T17:12:13.950Z,3.17
2023-05-14T17:14:40.537Z,3.53
2023-05-14T17:17:07.261Z,3.95
2023-05-14T17:19:33.746Z,3.78
2023-05-14T17:22:00.567Z,3.60
2023-05-14T17:24:27.278Z,3.72
2023-05-14T17:26:53.770Z,3.33
2023-05-14T17:29:20.861Z,3.67
2023-05-14T17:31:48.903Z,3.92
2023-05-14T17:34:15.475Z,3.40
2023-05-14T17:36:42.576Z,3.42
2023-05-14T17:39:09.428Z,3.92
2023-05-14T17:41:36.080Z,3.95
2023-05-14T17:44:02.686Z,4.35
2023-05-14T17:46:29.513Z,4.10
2023-05-14T17:48:56.642Z,4.32
2023-05-14T17:51:23.208Z,4.22
2023-05-14T17:53:49.777Z,4.45
2023-05-14T17:56:18.429Z,4.80
2023-05-14T17:58:47.070Z,4.63
2023-05-14T18:01:13.586Z,4.95
2023-05-14T18:03:40.182Z,5.63
2023-05-14T18:06:06.698Z,5.43
2023-05-14T18:08:34.172Z,4.93
2023-05-14T18:11:01.398Z,5.07
2023-05-14T18:13:28.278Z,5.90
2023-05-14T18:15:56.696Z,6.65
2023-05-14T18:18:24.218Z,6.18
2023-05-14T18:20:51.904Z,5.60
2023-05-14T18:23:18.996Z,6.25
2023-05-14T18:25:45.637Z,6.07
2023-05-14T18:28:12.577Z,6.93
2023-05-14T18:30:39.607Z,6.68
2023-05-14T18:33:06.276Z,7.28
2023-05-14T18:35:33.252Z,6.97
2023-05-14T18:37:59.987Z,7.20
2023-05-14T18:40:27.106Z,7.43
2023-05-14T18:42:53.880Z,6.90
2023-05-14T18:45:21.791Z,7.05
2023-05-14T18:47:48.741Z,6.78
2023-05-14T18:50:15.435Z,6.97
2023-05-14T18:52:42.094Z,6.85
2023-05-14T18:55:09.331Z,6.97
2023-05-14T18:57:37.328Z,6.82
2023-05-14T19:00:05.570Z,6.78
2023-05-14T19:04:59.340Z,6.70
2023-05-14T19:07:28.193Z,7.10
2023-05-14T19:09:54.817Z,7.10
2023-05-14T19:12:21.608Z,6.53
2023-05-14T19:14:48.322Z,5.60
2023-05-14T19:17:15.826Z,7.50
2023-05-14T19:19:43.673Z,7.30
2023-05-14T19:22:10.528Z,6.43
2023-05-14T19:24:37.889Z,6.88
2023-05-14T19:27:04.839Z,5.87
2023-05-14T19:29:33.698Z,7.10
2023-05-14T19:32:00.760Z,6.55
2023-05-14T19:34:27.558Z,6.68
2023-05-14T19:36:55.550Z,6.63
2023-05-14T19:39:22.376Z,6.85
2023-05-14T19:41:48.853Z,5.97
2023-05-14T19:44:15.901Z,6.85
2023-05-14T19:46:45.969Z,6.00
2023-05-14T19:49:13.517Z,5.88
2023-05-14T19:51:39.984Z,5.90
2023-05-14T19:54:09.342Z,6.50
2023-05-14T19:56:35.869Z,6.53
2023-05-14T19:59:02.417Z,6.10
2023-05-14T20:01:29.540Z,5.72
2023-05-14T20:03:56.000Z,6.43
2023-05-14T20:06:22.571Z,5.80
2023-05-14T20:08:49.055Z,6.45
2023-05-14T20:11:17.929Z,6.53
2023-05-14T20:13:44.385Z,6.10
2023-05-14T20:16:11.473Z,5.53
2023-05-14T20:18:38.317Z,5.32
2023-05-14T20:21:05.570Z,5.90
2023-05-14T20:23:32.374Z,6.88
2023-05-14T20:26:01.818Z,5.85
2023-05-14T20:28:28.407Z,6.93
2023-05-14T20:30:55.305Z,6.65
2023-05-14T20:33:21.942Z,6.32
2023-05-14T20:35:48.398Z,7.03
2023-05-14T20:38:14.860Z,6.88
2023-05-14T20:40:41.319Z,7.15
2023-05-14T20:43:07.790Z,6.88
2023-05-14T20:45:34.285Z,7.68
2023-05-14T20:48:00.992Z,6.75
2023-05-14T20:50:28.003Z,7.05
2023-05-14T20:52:55.302Z,7.25
2023-05-14T20:55:21.959Z,7.60
2023-05-14T20:57:49.665Z,7.07
2023-05-14T21:00:16.429Z,7.10
2023-05-14T21:02:42.989Z,7.40
2023-05-14T21:05:09.663Z,7.82
2023-05-14T21:07:37.282Z,7.43
2023-05-14T21:10:04.269Z,7.47
2023-05-14T21:12:31.082Z,7.15
2023-05-14T21:14:57.502Z,7.40
2023-05-14T21:17:23.980Z,7.93
2023-05-14T21:19:50.488Z,8.15
2023-05-14T21:22:16.905Z,8.00
2023-05-14T21:24:43.405Z,8.18
2023-05-14T21:27:10.184Z,8.60
2023-05-14T21:29:36.760Z,6.90
2023-05-14T21:32:03.482Z,7.53
2023-05-14T21:34:32.013Z,8.30
2023-05-14T21:36:58.831Z,7.80
2023-05-14T21:39:25.312Z,9.70
2023-05-14T21:41:51.932Z,7.70
2023-05-14T21:44:18.407Z,7.20
2023-05-14T21:46:44.863Z,8.27
2023-05-14T21:49:11.356Z,7.90
2023-05-14T21:51:37.832Z,7.63
2023-05-14T21:54:04.529Z,8.00
2023-05-14T21:56:30.992Z,7.30
2023-05-14T21:58:57.490Z,7.65
2023-05-14T22:01:24.014Z,9.20
2023-05-14T22:03:50.681Z,7.57
2023-05-14T22:06:17.135Z,8.65
2023-05-14T22:08:43.537Z,8.85
2023-05-14T22:11:10.056Z,8.30
2023-05-14T22:13:40.700Z,9.23
2023-05-14T22:16:13.173Z,9.05
2023-05-14T22:18:40.647Z,8.35
2023-05-14T22:21:07.260Z,9.10
2023-05-14T22:23:33.818Z,8.90
2023-05-14T22:26:00.396Z,9.63
2023-05-14T22:28:27.017Z,9.10
2023-05-14T22:30:53.682Z,9.18
2023-05-14T22:33:20.440Z,9.70
2023-05-14T22:35:46.959Z,8.93
2023-05-14T22:38:14.084Z,9.02
2023-05-14T22:40:40.782Z,9.50
2023-05-14T22:43:07.240Z,9.93
2023-05-14T22:45:33.796Z,7.97
2023-05-14T22:48:00.413Z,9.93
2023-05-14T22:50:26.960Z,9.88
2023-05-14T22:52:53.490Z,9.73
2023-05-14T22:55:19.985Z,9.73
2023-05-14T22:57:46.521Z,9.02
2023-05-14T23:00:13.858Z,9.30
2023-05-14T23:02:40.574Z,9.63
2023-05-14T23:05:09.124Z,10.90
2023-05-14T23:07:35.832Z,9.93
2023-05-14T23:10:02.253Z,11.23
2023-05-14T23:12:28.796Z,11.43
2023-05-14T23:14:55.866Z,10.18
2023-05-14T23:17:22.336Z,10.95
2023-05-14T23:19:49.202Z,10.70
2023-05-14T23:22:15.763Z,11.35
2023-05-14T23:24:42.308Z,10.52
2023-05-14T23:27:08.941Z,10.68
2023-05-14T23:29:35.617Z,10.30
2023-05-14T23:32:02.122Z,11.50
2023-05-14T23:34:28.697Z,10.68
2023-05-14T23:36:55.339Z,10.98
2023-05-14T23:39:21.914Z,11.32
2023-05-14T23:41:48.352Z,11.27
2023-05-14T23:44:15.359Z,11.35
2023-05-14T23:46:41.966Z,11.43
2023-05-14T23:49:08.481Z,10.50
2023-05-14T23:51:35.180Z,11.40
2023-05-14T23:54:01.679Z,10.77
2023-05-14T23:56:29.239Z,11.10
2023-05-14T23:58:56.007Z,12.20
